createdAt,value
2019-05-11T00:00:20.883Z,13.80
2019-05-11T00:02:51.174Z,13.50
2019-05-11T00:05:24.299Z,15.50
2019-05-11T00:07:54.535Z,14.15
2019-05-11T00:10:24.770Z,14.83
2019-05-11T00:12:55.103Z,13.20
2019-05-11T00:15:25.719Z,12.30
2019-05-11T00:17:55.983Z,13.22
2019-05-11T00:20:26.231Z,13.25
2019-05-11T00:22:56.427Z,13.15
2019-05-11T00:25:26.640Z,14.03
2019-05-11T00:27:56.843Z,13.90
2019-05-11T00:32:58.778Z,11.40
2019-05-11T00:35:28.968Z,10.98
2019-05-11T00:37:59.183Z,12.33
2019-05-11T00:40:29.367Z,11.63
2019-05-11T00:42:59.574Z,11.45
2019-05-11T00:45:29.811Z,12.33
2019-05-11T00:48:00.026Z,11.33
2019-05-11T00:50:38.692Z,13.20
2019-05-11T00:53:02.220Z,12.28
2019-05-11T00:55:32.441Z,11.35
2019-05-11T00:58:02.696Z,12.00
2019-05-11T01:00:32.934Z,11.97
2019-05-11T01:03:04.922Z,12.95
2019-05-11T01:05:35.710Z,13.08
2019-05-11T01:08:06.255Z,13.40
2019-05-11T01:10:42.150Z,13.35
2019-05-11T01:13:28.551Z,12.47
2019-05-11T01:15:58.759Z,13.18
2019-05-11T01:18:29.153Z,14.93
2019-05-11T01:20:59.416Z,13.97
2019-05-11T01:23:45.248Z,14.20
2019-05-11T01:26:15.462Z,14.30
2019-05-11T01:28:45.734Z,14.25
2019-05-11T01:31:15.931Z,14.87
2019-05-11T01:33:46.214Z,9.53
2019-05-11T01:36:16.479Z,14.83
2019-05-11T01:38:46.693Z,15.03
2019-05-11T01:41:16.884Z,14.73
2019-05-11T01:43:47.103Z,13.53
2019-05-11T01:46:17.297Z,13.55
2019-05-11T01:48:47.511Z,13.38
2019-05-11T01:51:17.705Z,15.80
2019-05-11T01:56:19.425Z,14.75
2019-05-11T01:58:49.638Z,14.47
2019-05-11T02:01:19.832Z,14.98
2019-05-11T02:03:50.042Z,14.68
2019-05-11T02:06:20.231Z,15.20
2019-05-11T02:08:50.495Z,14.60
2019-05-11T02:11:20.755Z,14.68
2019-05-11T02:13:50.987Z,16.48
2019-05-11T02:16:21.162Z,14.30
2019-05-11T02:19:04.010Z,15.25
2019-05-11T02:21:34.224Z,16.23
2019-05-11T02:24:04.452Z,15.10
2019-05-11T02:29:05.137Z,13.45
2019-05-11T02:31:35.434Z,14.73
2019-05-11T02:34:05.642Z,14.25
2019-05-11T02:36:35.857Z,14.33
2019-05-11T02:39:44.447Z,14.28
2019-05-11T02:42:14.673Z,14.10
2019-05-11T02:44:44.867Z,14.03
2019-05-11T02:47:15.070Z,14.93
2019-05-11T02:49:45.265Z,13.13
2019-05-11T02:52:15.573Z,13.98
2019-05-11T02:54:46.120Z,14.13
2019-05-11T02:57:16.306Z,14.73
2019-05-11T02:59:46.520Z,14.70
2019-05-11T03:02:16.708Z,14.53
2019-05-11T03:04:47.365Z,15.32
2019-05-11T03:07:17.564Z,14.93
2019-05-11T03:09:48.090Z,14.43
2019-05-11T03:12:18.356Z,10.55
2019-05-11T03:14:48.551Z,13.98
2019-05-11T03:17:20.384Z,15.28
2019-05-11T03:19:50.676Z,14.58
2019-05-11T03:22:20.858Z,14.43
2019-05-11T03:24:51.156Z,14.13
2019-05-11T03:29:51.736Z,13.75
2019-05-11T03:34:52.375Z,14.23
2019-05-11T03:37:22.564Z,13.50
2019-05-11T03:39:52.795Z,13.78
2019-05-11T03:42:22.999Z,13.55
2019-05-11T03:44:53.266Z,15.03
2019-05-11T03:47:23.452Z,14.47
2019-05-11T03:49:53.660Z,14.20
2019-05-11T03:52:23.849Z,13.28
2019-05-11T03:58:40.333Z,12.35
2019-05-11T04:01:10.584Z,9.20
2019-05-11T04:03:40.865Z,12.23
2019-05-11T04:06:11.079Z,12.60
2019-05-11T04:08:53.093Z,12.33
2019-05-11T04:11:23.283Z,11.40
2019-05-11T04:13:53.668Z,11.30
2019-05-11T04:16:23.852Z,12.18
2019-05-11T04:18:54.051Z,10.95
2019-05-11T04:21:24.259Z,11.88
2019-05-11T04:23:55.386Z,10.98
2019-05-11T04:26:25.654Z,10.93
2019-05-11T04:28:55.908Z,11.57
2019-05-11T04:31:26.110Z,10.88
2019-05-11T04:33:56.431Z,11.67
2019-05-11T04:36:29.358Z,10.58
2019-05-11T04:39:06.711Z,10.90
2019-05-11T04:41:36.919Z,10.60
2019-05-11T04:44:07.102Z,10.03
2019-05-11T04:46:37.296Z,10.00
2019-05-11T04:49:07.479Z,10.38
2019-05-11T04:51:37.690Z,9.60
2019-05-11T04:54:10.909Z,9.83
2019-05-11T04:56:41.111Z,9.08
2019-05-11T04:59:11.294Z,8.60
2019-05-11T05:01:41.509Z,8.05
2019-05-11T05:04:14.233Z,8.25
2019-05-11T05:06:57.830Z,8.43
2019-05-11T05:09:16.067Z,7.22
2019-05-11T05:11:46.327Z,6.92
2019-05-11T05:14:16.527Z,6.55
2019-05-11T05:16:46.732Z,6.60
2019-05-11T05:19:16.932Z,6.60
2019-05-11T05:21:47.199Z,5.90
2019-05-11T05:24:48.032Z,5.58
2019-05-11T05:27:18.250Z,5.95
2019-05-11T05:29:48.427Z,5.70
2019-05-11T05:32:18.639Z,6.15
2019-05-11T05:34:48.881Z,5.67
2019-05-11T05:37:19.089Z,6.35
2019-05-11T05:39:49.351Z,5.70
2019-05-11T05:42:19.622Z,5.70
2019-05-11T05:44:49.875Z,6.45
2019-05-11T05:47:20.143Z,6.58
2019-05-11T05:49:50.355Z,6.87
2019-05-11T05:52:20.645Z,6.78
2019-05-11T05:54:50.972Z,6.80
2019-05-11T05:57:21.191Z,6.60
2019-05-11T05:59:51.376Z,6.30
2019-05-11T06:02:21.586Z,5.92
2019-05-11T06:04:52.746Z,6.50
2019-05-11T06:07:23.287Z,6.65
2019-05-11T06:10:12.974Z,6.53
2019-05-11T06:12:43.255Z,6.28
2019-05-11T06:15:13.428Z,6.08
2019-05-11T06:17:43.719Z,5.97
2019-05-11T06:20:19.965Z,5.58
2019-05-11T06:22:53.391Z,5.22
2019-05-11T06:25:23.586Z,5.72
2019-05-11T06:27:53.786Z,5.10
2019-05-11T06:30:24.186Z,5.40
2019-05-11T06:32:54.470Z,5.70
2019-05-11T06:35:24.655Z,5.42
2019-05-11T06:37:54.883Z,5.50
2019-05-11T06:40:28.369Z,5.70
2019-05-11T06:42:57.063Z,5.50
2019-05-11T06:45:27.240Z,4.55
2019-05-11T06:47:57.658Z,5.30
2019-05-11T06:50:27.902Z,5.17
2019-05-11T06:52:58.123Z,4.65
2019-05-11T06:55:28.333Z,5.45
2019-05-11T06:57:58.586Z,4.37
2019-05-11T07:00:28.792Z,4.58
2019-05-11T07:02:59.073Z,4.15
2019-05-11T07:05:29.445Z,4.58
2019-05-11T07:07:59.623Z,5.62
2019-05-11T07:10:29.905Z,4.47
2019-05-11T07:13:00.112Z,4.45
2019-05-11T07:15:30.382Z,4.78
2019-05-11T07:18:00.579Z,4.20
2019-05-11T07:20:30.791Z,4.08
2019-05-11T07:23:00.986Z,3.62
2019-05-11T07:25:31.186Z,3.87
2019-05-11T07:28:01.362Z,3.90
2019-05-11T07:30:32.635Z,4.05
2019-05-11T07:33:03.185Z,4.80
2019-05-11T07:35:34.139Z,4.10
2019-05-11T07:38:04.453Z,3.98
2019-05-11T07:40:34.653Z,4.22
2019-05-11T07:43:09.010Z,4.55
2019-05-11T07:45:38.655Z,3.92
2019-05-11T07:48:09.143Z,3.87
2019-05-11T07:50:39.779Z,3.87
2019-05-11T07:53:09.962Z,4.17
2019-05-11T07:55:40.161Z,4.10
2019-05-11T07:58:10.339Z,3.80
2019-05-11T08:00:40.859Z,3.65
2019-05-11T08:03:11.039Z,4.30
2019-05-11T08:05:41.226Z,4.08
2019-05-11T08:08:11.415Z,4.12
2019-05-11T08:10:41.646Z,4.58
2019-05-11T08:13:11.910Z,4.08
2019-05-11T08:15:42.107Z,3.85
2019-05-11T08:18:12.283Z,4.15
2019-05-11T08:20:42.494Z,4.17
2019-05-11T08:23:12.672Z,3.70
2019-05-11T08:25:42.875Z,3.60
2019-05-11T08:28:13.063Z,4.20
2019-05-11T08:30:43.262Z,3.85
2019-05-11T08:33:13.443Z,3.37
2019-05-11T08:35:43.644Z,4.08
2019-05-11T08:38:13.818Z,4.25
2019-05-11T08:40:44.023Z,4.15
2019-05-11T08:43:14.202Z,4.25
2019-05-11T08:45:44.411Z,3.87
2019-05-11T08:48:14.595Z,4.40
2019-05-11T08:50:44.804Z,4.47
2019-05-11T08:53:14.986Z,4.15
2019-05-11T08:55:45.201Z,3.98
2019-05-11T08:58:15.456Z,3.85
2019-05-11T09:00:47.712Z,4.15
2019-05-11T09:03:17.997Z,4.08
2019-05-11T09:05:48.668Z,4.30
2019-05-11T09:08:19.162Z,4.70
2019-05-11T09:10:49.502Z,4.67
2019-05-11T09:13:21.226Z,4.22
2019-05-11T09:15:51.444Z,3.37
2019-05-11T09:18:21.658Z,3.90
2019-05-11T09:20:51.865Z,3.62
2019-05-11T09:23:33.685Z,4.17
2019-05-11T09:25:54.122Z,4.22
2019-05-11T09:28:24.387Z,4.67
2019-05-11T09:30:54.702Z,4.22
2019-05-11T09:33:24.978Z,4.67
2019-05-11T09:35:55.275Z,4.75
2019-05-11T09:38:27.605Z,4.22
2019-05-11T09:40:58.576Z,4.08
2019-05-11T09:43:48.191Z,4.37
2019-05-11T09:46:18.891Z,4.95
2019-05-11T09:51:19.096Z,4.35
2019-05-11T09:53:49.284Z,4.65
2019-05-11T09:56:19.647Z,4.83
2019-05-11T09:58:49.903Z,4.95
2019-05-11T10:01:20.211Z,5.37
2019-05-11T10:03:50.412Z,4.30
2019-05-11T10:06:20.621Z,5.40
2019-05-11T10:08:50.804Z,4.60
2019-05-11T10:11:21.058Z,4.95
2019-05-11T10:13:51.248Z,4.85
2019-05-11T10:16:21.539Z,5.22
2019-05-11T10:18:51.776Z,4.50
2019-05-11T10:21:21.968Z,5.40
2019-05-11T10:23:52.246Z,4.80
2019-05-11T10:26:22.451Z,4.62
2019-05-11T10:28:52.673Z,4.87
2019-05-11T10:31:23.007Z,4.77
2019-05-11T10:33:53.209Z,4.85
2019-05-11T10:36:23.408Z,4.97
2019-05-11T10:38:53.634Z,4.65
2019-05-11T10:41:23.823Z,4.47
2019-05-11T10:43:54.272Z,5.12
2019-05-11T10:46:24.472Z,4.67
2019-05-11T10:48:54.769Z,4.50
2019-05-11T10:51:24.957Z,4.70
2019-05-11T10:53:57.593Z,4.55
2019-05-11T10:56:28.471Z,4.25
2019-05-11T10:58:58.873Z,4.35
2019-05-11T11:01:29.052Z,4.42
2019-05-11T11:03:59.317Z,4.00
2019-05-11T11:06:29.538Z,4.08
2019-05-11T11:08:59.761Z,4.17
2019-05-11T11:11:29.940Z,4.65
2019-05-11T11:14:00.234Z,4.58
2019-05-11T11:16:36.926Z,4.75
2019-05-11T11:19:02.524Z,4.42
2019-05-11T11:21:32.725Z,4.85
2019-05-11T11:24:02.958Z,4.97
2019-05-11T11:26:33.189Z,4.67
2019-05-11T11:29:03.417Z,4.80
2019-05-11T11:31:33.814Z,5.00
2019-05-11T11:34:04.191Z,5.12
2019-05-11T11:36:34.398Z,4.65
2019-05-11T11:39:08.365Z,4.60
2019-05-11T11:41:38.452Z,4.80
2019-05-11T11:44:08.702Z,4.70
2019-05-11T11:46:51.346Z,4.62
2019-05-11T11:49:11.124Z,4.35
2019-05-11T11:51:41.314Z,4.10
2019-05-11T11:54:11.503Z,4.03
2019-05-11T11:56:41.751Z,4.00
2019-05-11T11:59:12.302Z,4.60
2019-05-11T12:01:42.508Z,4.30
2019-05-11T12:04:12.685Z,4.75
2019-05-11T12:06:42.888Z,4.25
2019-05-11T12:09:13.068Z,4.47
2019-05-11T12:11:43.279Z,4.53
2019-05-11T12:14:13.492Z,4.35
2019-05-11T12:16:43.715Z,4.72
2019-05-11T12:19:13.927Z,4.35
2019-05-11T12:21:44.138Z,5.25
2019-05-11T12:24:14.388Z,4.97
2019-05-11T12:26:44.596Z,5.42
2019-05-11T12:29:15.187Z,5.03
2019-05-11T12:31:45.602Z,4.20
2019-05-11T12:34:17.739Z,4.05
2019-05-11T12:36:48.134Z,4.20
2019-05-11T12:39:19.145Z,4.22
2019-05-11T12:41:49.934Z,4.00
2019-05-11T12:44:20.150Z,4.55
2019-05-11T12:46:50.511Z,4.27
2019-05-11T12:49:20.682Z,4.10
2019-05-11T12:51:50.891Z,3.80
2019-05-11T12:54:21.150Z,3.95
2019-05-11T12:56:51.350Z,3.98
2019-05-11T12:59:22.500Z,4.40
2019-05-11T13:01:52.691Z,3.77
2019-05-11T13:04:22.938Z,3.33
2019-05-11T13:06:53.162Z,3.60
2019-05-11T13:09:23.330Z,4.05
2019-05-11T13:11:53.545Z,3.80
2019-05-11T13:18:13.964Z,3.98
2019-05-11T13:20:44.227Z,3.90
2019-05-11T13:23:14.437Z,4.10
2019-05-11T13:25:44.602Z,4.20
2019-05-11T13:28:14.810Z,4.95
2019-05-11T13:30:44.994Z,4.75
2019-05-11T13:33:15.198Z,4.22
2019-05-11T13:35:45.448Z,4.37
2019-05-11T13:38:17.871Z,4.12
2019-05-11T13:40:48.892Z,3.90
2019-05-11T13:43:19.788Z,4.50
2019-05-11T13:45:49.995Z,4.30
2019-05-11T13:48:20.199Z,4.33
2019-05-11T13:50:50.398Z,4.37
2019-05-11T13:53:20.619Z,3.70
2019-05-11T13:55:50.972Z,3.77
2019-05-11T13:58:21.175Z,3.58
2019-05-11T14:00:51.807Z,4.12
2019-05-11T14:03:22.102Z,3.20
2019-05-11T14:05:52.314Z,3.45
2019-05-11T14:08:22.607Z,3.60
2019-05-11T14:10:52.787Z,3.20
2019-05-11T14:13:23.000Z,3.10
2019-05-11T14:16:11.388Z,3.30
2019-05-11T14:18:41.608Z,2.62
2019-05-11T14:21:11.786Z,3.12
2019-05-11T14:23:42.065Z,3.02
2019-05-11T14:26:12.494Z,2.97
2019-05-11T14:28:42.880Z,2.70
2019-05-11T14:31:13.421Z,2.95
2019-05-11T14:33:43.699Z,2.65
2019-05-11T14:36:13.866Z,3.27
2019-05-11T14:38:44.097Z,3.20
2019-05-11T14:41:14.283Z,2.95
2019-05-11T14:43:44.489Z,2.95
2019-05-11T14:46:14.992Z,2.70
2019-05-11T14:48:45.267Z,2.87
2019-05-11T14:51:17.726Z,12.25
2019-05-11T14:53:48.209Z,5.17
2019-05-11T14:58:49.442Z,2.60
2019-05-11T15:01:19.996Z,2.72
2019-05-11T15:03:50.224Z,2.55
2019-05-11T15:06:20.412Z,2.75
2019-05-11T15:08:50.616Z,2.55
2019-05-11T15:11:20.869Z,2.83
2019-05-11T15:13:51.338Z,2.40
2019-05-11T15:16:22.591Z,3.00
2019-05-11T15:18:52.791Z,2.10
2019-05-11T15:21:22.991Z,2.50
2019-05-11T15:23:53.198Z,2.05
2019-05-11T15:26:23.402Z,2.17
2019-05-11T15:31:24.169Z,2.80
2019-05-11T15:33:54.350Z,2.27
2019-05-11T15:36:24.551Z,2.00
2019-05-11T15:38:54.795Z,2.60
2019-05-11T15:41:25.008Z,2.62
2019-05-11T15:43:55.184Z,2.30
2019-05-11T15:46:25.388Z,2.60
2019-05-11T15:49:00.471Z,2.22
2019-05-11T15:51:29.090Z,2.30
2019-05-11T15:53:59.511Z,2.70
2019-05-11T15:56:30.794Z,2.60
2019-05-11T15:59:01.042Z,2.50
2019-05-11T16:01:31.293Z,2.62
2019-05-11T16:04:01.492Z,2.37
2019-05-11T16:09:02.293Z,2.40
2019-05-11T16:11:32.640Z,2.07
2019-05-11T16:14:02.887Z,2.10
2019-05-11T16:16:33.467Z,2.00
2019-05-11T16:19:13.607Z,1.98
2019-05-11T16:21:38.085Z,2.17
2019-05-11T16:24:08.201Z,2.00
2019-05-11T16:26:38.758Z,2.25
2019-05-11T16:29:11.465Z,2.27
2019-05-11T16:31:40.834Z,2.10
2019-05-11T16:34:11.058Z,2.10
2019-05-11T16:36:41.268Z,2.10
2019-05-11T16:39:11.464Z,2.10
2019-05-11T16:41:41.698Z,1.80
2019-05-11T16:44:11.938Z,1.92
2019-05-11T16:46:42.148Z,1.70
2019-05-11T16:49:24.915Z,1.75
2019-05-11T16:51:44.227Z,2.00
2019-05-11T16:54:14.572Z,2.10
2019-05-11T16:56:44.792Z,2.37
2019-05-11T16:59:15.040Z,1.87
2019-05-11T17:01:45.246Z,2.08
2019-05-11T17:04:15.436Z,2.02
2019-05-11T17:06:45.644Z,2.00
2019-05-11T17:09:17.861Z,2.60
2019-05-11T17:11:48.958Z,2.80
2019-05-11T17:14:19.526Z,2.37
2019-05-11T17:16:49.852Z,2.52
2019-05-11T17:19:20.110Z,2.12
2019-05-11T17:21:50.304Z,1.90
2019-05-11T17:24:20.509Z,1.75
2019-05-11T17:26:50.713Z,1.82
2019-05-11T17:29:20.929Z,1.87
2019-05-11T17:31:51.181Z,1.57
2019-05-11T17:34:21.557Z,2.12
2019-05-11T17:36:51.790Z,2.00
2019-05-11T17:39:22.068Z,2.25
2019-05-11T17:41:52.244Z,2.05
2019-05-11T17:44:22.464Z,2.05
2019-05-11T17:46:52.643Z,2.30
2019-05-11T17:49:22.932Z,2.27
2019-05-11T17:51:53.113Z,1.90
2019-05-11T17:54:23.424Z,1.60
2019-05-11T17:56:53.629Z,1.80
2019-05-11T17:59:23.903Z,1.47
2019-05-11T18:01:54.139Z,2.25
2019-05-11T18:04:24.561Z,1.60
2019-05-11T18:06:58.835Z,1.87
2019-05-11T18:09:29.320Z,2.47
2019-05-11T18:11:59.499Z,2.25
2019-05-11T18:14:29.710Z,2.40
2019-05-11T18:16:59.976Z,1.80
2019-05-11T18:19:30.492Z,1.50
2019-05-11T18:22:00.749Z,2.65
2019-05-11T18:24:30.957Z,1.75
2019-05-11T18:27:01.169Z,1.85
2019-05-11T18:29:32.443Z,1.85
2019-05-11T18:32:02.624Z,2.05
2019-05-11T18:34:33.008Z,1.47
2019-05-11T18:37:03.204Z,1.60
2019-05-11T18:39:33.472Z,1.55
2019-05-11T18:42:03.665Z,2.08
2019-05-11T18:44:33.852Z,2.90
2019-05-11T18:47:04.046Z,1.77
2019-05-11T18:50:07.335Z,1.90
2019-05-11T18:52:37.578Z,2.20
2019-05-11T18:55:08.445Z,2.30
2019-05-11T18:57:39.223Z,1.75
2019-05-11T19:00:14.431Z,2.10
2019-05-11T19:02:45.523Z,2.33
2019-05-11T19:05:17.805Z,2.62
2019-05-11T19:07:48.281Z,2.90
2019-05-11T19:10:18.856Z,3.58
2019-05-11T19:12:49.221Z,3.35
2019-05-11T19:15:19.642Z,2.72
2019-05-11T19:17:49.826Z,2.20
2019-05-11T19:20:20.034Z,2.20
2019-05-11T19:22:50.213Z,2.30
2019-05-11T19:25:20.413Z,2.42
2019-05-11T19:27:50.879Z,2.67
2019-05-11T19:30:21.296Z,2.17
2019-05-11T19:32:51.574Z,2.30
2019-05-11T19:35:21.855Z,2.62
2019-05-11T19:37:52.178Z,1.87
2019-05-11T19:40:22.513Z,3.12
2019-05-11T19:42:54.597Z,3.05
2019-05-11T19:45:28.943Z,2.72
2019-05-11T19:47:58.009Z,2.70
2019-05-11T19:50:28.243Z,3.87
2019-05-11T19:52:58.606Z,3.90
2019-05-11T19:55:28.838Z,3.20
2019-05-11T19:58:00.223Z,3.27
2019-05-11T20:00:30.499Z,3.02
2019-05-11T20:03:00.694Z,3.15
2019-05-11T20:05:31.234Z,3.20
2019-05-11T20:08:01.484Z,2.30
2019-05-11T20:10:31.678Z,4.03
2019-05-11T20:13:01.874Z,2.47
2019-05-11T20:15:32.139Z,2.50
2019-05-11T20:18:02.453Z,2.15
2019-05-11T20:20:32.641Z,2.83
2019-05-11T20:23:02.892Z,2.80
2019-05-11T20:25:33.086Z,2.35
2019-05-11T20:28:03.360Z,2.50
2019-05-11T20:30:33.647Z,2.55
2019-05-11T20:33:03.846Z,2.75
2019-05-11T20:35:34.041Z,2.35
2019-05-11T20:38:04.384Z,2.50
2019-05-11T20:40:34.693Z,2.73
2019-05-11T20:43:04.902Z,3.10
2019-05-11T20:45:35.240Z,2.43
2019-05-11T20:48:07.745Z,2.85
2019-05-11T20:50:38.286Z,2.65
2019-05-11T20:53:08.702Z,2.40
2019-05-11T20:55:39.699Z,2.83
2019-05-11T20:58:09.992Z,2.60
2019-05-11T21:00:40.168Z,2.90
2019-05-11T21:03:10.373Z,3.00
2019-05-11T21:05:40.657Z,2.98
2019-05-11T21:08:10.856Z,3.05
2019-05-11T21:10:41.081Z,4.17
2019-05-11T21:13:11.271Z,3.90
2019-05-11T21:15:41.562Z,3.10
2019-05-11T21:18:11.743Z,3.40
2019-05-11T21:20:41.981Z,3.20
2019-05-11T21:23:12.223Z,3.60
2019-05-11T21:25:42.497Z,4.42
2019-05-11T21:28:12.666Z,3.92
2019-05-11T21:30:42.875Z,4.37
2019-05-11T21:33:13.057Z,4.87
2019-05-11T21:35:44.194Z,5.15
2019-05-11T21:38:14.537Z,5.20
2019-05-11T21:40:45.181Z,6.43
2019-05-11T21:43:15.599Z,6.22
2019-05-11T21:45:45.805Z,5.05
2019-05-11T21:48:16.040Z,4.47
2019-05-11T21:50:46.323Z,4.50
2019-05-11T21:53:18.438Z,4.40
2019-05-11T21:55:48.541Z,4.60
2019-05-11T21:58:18.756Z,4.03
2019-05-11T22:00:49.263Z,4.35
2019-05-11T22:03:21.257Z,3.47
2019-05-11T22:05:51.610Z,3.70
2019-05-11T22:08:21.816Z,3.95
2019-05-11T22:10:52.022Z,4.10
2019-05-11T22:13:22.247Z,4.50
2019-05-11T22:15:52.494Z,5.25
2019-05-11T22:18:30.990Z,5.62
2019-05-11T22:20:54.697Z,5.22
2019-05-11T22:23:24.912Z,5.22
2019-05-11T22:25:55.350Z,5.40
2019-05-11T22:28:25.639Z,4.72
2019-05-11T22:30:55.963Z,4.27
2019-05-11T22:33:28.261Z,5.10
2019-05-11T22:35:58.722Z,3.83
2019-05-11T22:41:00.488Z,3.62
2019-05-11T22:43:30.780Z,3.72
2019-05-11T22:46:01.018Z,3.90
2019-05-11T22:48:31.270Z,4.00
2019-05-11T22:51:01.546Z,4.03
2019-05-11T22:53:43.659Z,4.70
2019-05-11T22:56:03.712Z,8.70
2019-05-11T22:58:33.964Z,10.70
2019-05-11T23:01:04.203Z,9.03
2019-05-11T23:03:34.388Z,5.65
2019-05-11T23:06:04.612Z,4.62
2019-05-11T23:08:34.819Z,3.92
2019-05-11T23:11:05.071Z,4.40
2019-05-11T23:13:35.365Z,4.10
2019-05-11T23:16:05.550Z,3.58
2019-05-11T23:18:35.818Z,4.62
2019-05-11T23:21:08.624Z,4.87
2019-05-11T23:23:38.059Z,5.05
2019-05-11T23:26:08.640Z,5.70
2019-05-11T23:28:38.909Z,7.22
2019-05-11T23:31:09.154Z,7.62
2019-05-11T23:33:39.395Z,7.12
2019-05-11T23:39:33.398Z,6.60
2019-05-11T23:42:03.597Z,6.05
2019-05-11T23:44:33.780Z,5.40
2019-05-11T23:47:03.972Z,5.53
2019-05-11T23:49:34.219Z,5.40
2019-05-11T23:52:04.419Z,5.45
2019-05-11T23:54:34.598Z,4.85
2019-05-11T23:57:04.870Z,4.70
2019-05-11T23:59:35.044Z,4.60
